Main page
Satellite images 10-day forecastsClimateMarine weather Cyclones Lightning AirportsFAQ Newsletter About
Weather : Europe Africa North America South America Asia Australia-Oceania Others
Languages Contact

Leeds Bradford, England

Leeds Bradford International Airport

latitude: 53-52N, longitude: 001-39W, elevation: 208 m


METAR: EGNM 260420Z 32004KT 300V010 CAVOK 01/M02 Q1008
TAF: EGNM 252301Z 2600/2624 VRB03KT CAVOK PROB30 TEMPO 2622/2624 6000 -SHRASN BKN010

Time: 05:46 (04:46 UTC)

Current weather observation

The report was made 26 minutes ago, at 04:20 UTC
Wind 4 kt from the Northwest, varying between West/Northwest and North
Temperature 1°C
Humidity 80%
Pressure 1008 hPa
Visibility 10 km or more
no clouds below 1500 m and no cumulonimbus

Change units

Forecast

The report was made 5 hours and 45 minutes ago, at 23:01 UTC
Forecast valid from 26 at 00 UTC to 26 at 24 UTC
Wind 3 kt from variable directions
Visibility 10 km or more
no clouds below 1500 m and no cumulonimbus
Probability 30% :
Temporary
from 26 at 22 UTC to 26 at 24 UTC
Visibility: 6000 m
Broken clouds at a height of 1000 ft
light rain showers, snow
The information on this site is subject to a disclaimer
Weather : Europe Africa North America South America Asia Australia-Oceania Others
Satellite images 10-day forecastsClimateMarine weather Cyclones Lightning AirportsFAQ Languages Contact Newsletter About